Time;durP1;ratioP1;P1;durP2;ratioP2;P2;SDS_P1;SDS_P2;PMS_P1;PMS_P2;Temp;Humidity;BMP_temperature;BMP_pressure;BME280_temperature;BME280_humidity;BME280_pressure;Samples;Min_cycle;Max_cycle;Signal;HPM_P1;HPM_P2
2021/05/05 00:00:44;;;;;;;18.67;2.60;;;;;;;5.69;100.00;99874.53;3553916;40;20433;-60
2021/05/05 00:03:10;;;;;;;11.10;3.22;;;;;;;5.69;100.00;99874.53;3555569;40;20049;-61
2021/05/05 00:05:37;;;;;;;11.63;3.53;;;;;;;5.70;100.00;99873.56;3551136;40;20056;-62
2021/05/05 00:08:04;;;;;;;9.93;2.72;;;;;;;5.69;100.00;99866.53;3553025;40;20105;-61
2021/05/05 00:10:30;;;;;;;14.27;3.00;;;;;;;5.72;100.00;99871.59;3558660;40;20092;-61
2021/05/05 00:12:56;;;;;;;10.73;2.75;;;;;;;5.66;100.00;99872.13;3560374;40;20091;-62
2021/05/05 00:15:25;;;;;;;13.38;3.55;;;;;;;5.65;100.00;99884.59;3556106;40;20435;-61
2021/05/05 00:17:51;;;;;;;17.45;3.60;;;;;;;5.65;100.00;99878.44;3558686;40;20068;-64
2021/05/05 00:20:20;;;;;;;19.52;3.47;;;;;;;5.66;100.00;99880.97;3557959;40;20059;-61
2021/05/05 00:22:46;;;;;;;19.15;3.45;;;;;;;5.72;100.00;99880.44;3558148;40;20057;-62
2021/05/05 00:25:13;;;;;;;16.70;3.70;;;;;;;5.76;100.00;99876.53;3557713;40;20428;-61
2021/05/05 00:27:39;;;;;;;17.58;4.07;;;;;;;5.76;100.00;99891.72;3558639;40;21383;-62
2021/05/05 00:30:10;;;;;;;9.27;3.10;;;;;;;5.73;100.00;99882.16;3557685;40;20123;-62
2021/05/05 00:32:37;;;;;;;21.30;3.85;;;;;;;5.74;100.00;99891.84;3558308;40;20081;-62
2021/05/05 00:35:04;;;;;;;21.85;3.45;;;;;;;5.65;100.00;99883.75;3559327;40;20058;-61
2021/05/05 00:37:30;;;;;;;17.55;4.18;;;;;;;5.60;100.00;99882.31;3560619;40;20048;-63
2021/05/05 00:39:56;;;;;;;19.55;3.65;;;;;;;5.61;100.00;99873.34;3559786;40;20489;-63
2021/05/05 00:42:23;;;;;;;18.65;3.90;;;;;;;5.62;100.00;99871.50;3561956;40;20131;-61
2021/05/05 00:44:49;;;;;;;20.90;3.75;;;;;;;5.65;100.00;99878.44;3559344;40;20407;-62
2021/05/05 00:47:17;;;;;;;12.50;3.45;;;;;;;5.65;100.00;99878.44;3560729;40;20041;-62
2021/05/05 00:49:43;;;;;;;15.57;3.88;;;;;;;5.58;100.00;99880.75;3559571;40;20049;-61
2021/05/05 00:52:09;;;;;;;14.07;3.63;;;;;;;5.50;100.00;99875.22;3559004;40;20049;-62
2021/05/05 00:54:35;;;;;;;12.93;3.28;;;;;;;5.46;100.00;99877.28;3559620;40;20081;-63
2021/05/05 00:57:02;;;;;;;17.65;3.15;;;;;;;5.40;100.00;99872.44;3560010;40;20060;-62
2021/05/05 00:59:28;;;;;;;15.82;3.17;;;;;;;5.36;100.00;99873.69;3559782;40;20071;-61
2021/05/05 01:01:54;;;;;;;21.27;3.92;;;;;;;5.38;100.00;99874.41;3559608;40;20057;-62
2021/05/05 01:04:20;;;;;;;22.08;4.28;;;;;;;5.42;100.00;99878.53;3559200;40;20093;-63
2021/05/05 01:06:47;;;;;;;17.33;3.50;;;;;;;5.51;100.00;99872.41;3558197;40;20038;-62
2021/05/05 01:09:14;;;;;;;14.13;3.30;;;;;;;5.50;100.00;99868.03;3557346;40;20064;-62
2021/05/05 01:11:40;;;;;;;14.90;3.33;;;;;;;5.53;100.00;99870.47;3554740;40;20067;-61
2021/05/05 01:14:07;;;;;;;13.10;3.17;;;;;;;5.59;100.00;99875.31;3554210;40;20130;-62
2021/05/05 01:16:33;;;;;;;26.88;4.03;;;;;;;5.58;100.00;99884.28;3552751;40;20061;-62
2021/05/05 01:18:59;;;;;;;20.20;3.60;;;;;;;5.61;100.00;99886.69;3554616;40;21189;-63
2021/05/05 01:21:26;;;;;;;21.73;4.38;;;;;;;5.58;100.00;99900.28;3553524;40;20517;-65
2021/05/05 01:23:51;;;;;;;15.90;3.30;;;;;;;5.64;100.00;99892.72;3557267;40;20052;-63
2021/05/05 01:26:18;;;;;;;14.27;3.55;;;;;;;5.57;100.00;99887.06;3553574;40;20041;-62
2021/05/05 01:28:45;;;;;;;14.32;3.78;;;;;;;5.55;100.00;99889.00;3555397;40;20418;-62
2021/05/05 01:31:14;;;;;;;15.90;3.85;;;;;;;5.44;100.00;99898.75;3555449;40;20070;-64
2021/05/05 01:33:40;;;;;;;16.38;3.47;;;;;;;5.37;100.00;99886.06;3556962;40;20051;-62
2021/05/05 01:36:08;;;;;;;15.25;3.28;;;;;;;5.39;100.00;99878.78;3554999;40;20049;-63
2021/05/05 01:38:37;;;;;;;12.90;3.10;;;;;;;5.36;100.00;99884.34;3554727;40;20060;-61
2021/05/05 01:41:04;;;;;;;16.45;3.10;;;;;;;5.38;100.00;99885.09;3553794;40;20155;-61
2021/05/05 01:43:30;;;;;;;16.23;3.22;;;;;;;5.43;100.00;99880.19;3553427;40;20431;-62
2021/05/05 01:45:57;;;;;;;17.52;4.20;;;;;;;5.38;100.00;99877.91;3554983;40;20509;-61
2021/05/05 01:48:23;;;;;;;17.35;3.90;;;;;;;5.36;100.00;99882.53;3556063;40;20059;-61
2021/05/05 01:50:49;;;;;;;26.98;3.95;;;;;;;5.33;100.00;99881.94;3551563;40;20139;-61
2021/05/05 01:53:16;;;;;;;19.08;4.18;;;;;;;5.30;100.00;99871.53;3557071;40;20427;-62
2021/05/05 01:55:43;;;;;;;20.85;3.88;;;;;;;5.19;100.00;99873.25;3555494;40;20419;-61
2021/05/05 01:58:09;;;;;;;18.23;4.07;;;;;;;5.18;100.00;99871.56;3553720;40;20478;-60
2021/05/05 02:00:35;;;;;;;14.43;3.70;;;;;;;5.10;100.00;99879.34;3554027;40;20088;-61
2021/05/05 02:03:01;;;;;;;20.98;3.72;;;;;;;5.03;100.00;99878.16;3551721;40;20048;-62
2021/05/05 02:05:27;;;;;;;16.67;3.72;;;;;;;5.00;100.00;99883.72;3554064;40;20636;-61
2021/05/05 02:07:53;;;;;;;19.00;3.40;;;;;;;4.95;100.00;99883.25;3553455;40;20053;-61
2021/05/05 02:10:21;;;;;;;17.77;3.60;;;;;;;4.97;100.00;99882.16;3554379;40;20052;-61
2021/05/05 02:12:48;;;;;;;15.35;3.60;;;;;;;5.02;100.00;99873.78;3555473;40;20108;-61
2021/05/05 02:15:18;;;;;;;16.77;3.22;;;;;;;5.07;100.00;99875.09;3556584;40;20104;-61
2021/05/05 02:17:44;;;;;;;17.10;3.40;;;;;;;5.12;100.00;99882.72;3553367;40;20033;-61
2021/05/05 02:20:12;;;;;;;14.63;3.30;;;;;;;5.20;100.00;99879.44;3556981;40;20037;-61
2021/05/05 02:22:39;;;;;;;13.75;3.00;;;;;;;5.19;100.00;99867.91;3552813;40;20072;-61
2021/05/05 02:25:07;;;;;;;19.30;3.60;;;;;;;5.19;100.00;99881.25;3557179;40;20420;-63
2021/05/05 02:27:34;;;;;;;16.33;3.15;;;;;;;5.20;100.00;99885.63;3556319;40;20446;-64
2021/05/05 02:30:01;;;;;;;11.50;3.55;;;;;;;5.21;100.00;99882.00;3555451;40;20068;-62
2021/05/05 02:32:27;;;;;;;14.48;3.33;;;;;;;5.20;100.00;99892.78;3553844;40;20055;-62
2021/05/05 02:34:55;;;;;;;13.02;2.97;;;;;;;5.15;100.00;99887.81;3556162;40;20053;-61
2021/05/05 02:37:21;;;;;;;14.40;3.73;;;;;;;5.10;100.00;99887.34;3553486;40;20166;-62
2021/05/05 02:39:48;;;;;;;14.43;3.55;;;;;;;5.12;100.00;99877.38;3552244;40;20466;-61
2021/05/05 02:42:16;;;;;;;25.48;3.47;;;;;;;5.09;100.00;99888.31;3553679;40;20067;-61
2021/05/05 02:44:44;;;;;;;13.45;3.10;;;;;;;5.09;100.00;99882.97;3555022;40;20047;-61
2021/05/05 02:47:12;;;;;;;14.05;2.88;;;;;;;5.15;100.00;99882.47;3552826;40;20064;-61
2021/05/05 02:49:38;;;;;;;18.23;3.72;;;;;;;5.16;100.00;99886.00;3554812;40;20052;-61
2021/05/05 02:52:05;;;;;;;13.25;2.90;;;;;;;5.13;100.00;99884.44;3554278;40;20045;-62
2021/05/05 02:54:32;;;;;;;15.55;3.30;;;;;;;5.17;100.00;99885.88;3552274;40;20395;-61
2021/05/05 02:56:58;;;;;;;18.67;3.53;;;;;;;5.16;100.00;99883.34;3552632;40;20430;-62
2021/05/05 02:59:25;;;;;;;14.55;3.42;;;;;;;5.13;100.00;99879.09;3552049;40;20130;-61
2021/05/05 03:01:51;;;;;;;18.08;4.20;;;;;;;5.07;100.00;99884.94;3553085;40;20125;-59
2021/05/05 03:04:18;;;;;;;17.48;3.38;;;;;;;5.04;100.00;99879.84;3552383;40;20537;-62
2021/05/05 03:06:44;;;;;;;13.70;3.55;;;;;;;4.99;100.00;99874.03;3553672;40;20059;-63
2021/05/05 03:09:10;;;;;;;17.27;3.38;;;;;;;4.95;100.00;99884.09;3550155;40;20056;-61
2021/05/05 03:11:36;;;;;;;16.23;3.50;;;;;;;4.83;100.00;99883.28;3566125;40;20037;-64
2021/05/05 03:14:03;;;;;;;16.80;3.20;;;;;;;4.78;100.00;99885.44;3554962;40;20436;-61
2021/05/05 03:16:29;;;;;;;19.65;4.50;;;;;;;4.74;100.00;99878.66;3553209;40;20065;-61
2021/05/05 03:18:55;;;;;;;20.00;3.90;;;;;;;4.68;100.00;99880.03;3553345;40;20045;-62
2021/05/05 03:21:22;;;;;;;15.52;3.20;;;;;;;4.71;100.00;99889.56;3553143;40;20089;-61
2021/05/05 03:23:48;;;;;;;19.95;3.72;;;;;;;4.62;100.00;99880.50;3553674;40;20416;-64
2021/05/05 03:26:14;;;;;;;15.90;3.13;;;;;;;4.63;100.00;99884.03;3555591;40;20113;-64
2021/05/05 03:28:40;;;;;;;15.52;3.15;;;;;;;4.55;100.00;99885.47;3552381;40;20052;-61
2021/05/05 03:31:06;;;;;;;18.05;3.63;;;;;;;4.50;100.00;99882.31;3553751;40;20424;-63
2021/05/05 03:33:33;;;;;;;17.52;3.22;;;;;;;4.54;100.00;99883.78;3554508;40;20506;-61
2021/05/05 03:35:59;;;;;;;17.98;3.47;;;;;;;4.51;100.00;99892.00;3557498;40;20303;-61
2021/05/05 03:38:26;;;;;;;15.73;3.10;;;;;;;4.46;100.00;99888.88;3552224;40;20061;-60
2021/05/05 03:40:52;;;;;;;13.98;3.00;;;;;;;4.42;100.00;99889.22;3554132;40;20122;-62
2021/05/05 03:43:19;;;;;;;15.38;2.97;;;;;;;4.41;100.00;99887.53;3555558;40;20119;-61
2021/05/05 03:45:45;;;;;;;21.70;3.22;;;;;;;4.43;100.00;99885.59;3625273;22;20096;-61
2021/05/05 03:48:11;;;;;;;17.25;3.40;;;;;;;4.47;100.00;99892.38;3541954;40;20064;-61
2021/05/05 03:50:37;;;;;;;14.82;3.00;;;;;;;4.51;100.00;99894.69;3546678;40;20057;-62
2021/05/05 03:53:03;;;;;;;18.13;3.63;;;;;;;4.53;100.00;99882.09;3546214;40;20049;-65
2021/05/05 03:55:31;;;;;;;18.35;3.63;;;;;;;4.64;100.00;99888.38;3547991;40;20049;-61
2021/05/05 04:00:47;;;;;;;27.52;3.70;;;;;;;4.65;100.00;99890.06;3581507;23;20079;-61
2021/05/05 04:03:13;;;;;;;22.27;3.33;;;;;;;4.65;100.00;99890.06;3549843;40;20076;-61
2021/05/05 04:05:39;;;;;;;20.52;3.75;;;;;;;4.54;100.00;99882.94;3550375;40;20647;-61
2021/05/05 04:08:06;;;;;;;18.00;3.40;;;;;;;4.53;100.00;99891.88;3548751;40;20381;-61
2021/05/05 04:10:33;;;;;;;21.58;4.57;;;;;;;4.45;100.00;99889.84;3552463;40;20060;-60
2021/05/05 04:12:59;;;;;;;21.05;3.42;;;;;;;4.44;100.00;99892.63;3553931;40;20528;-63
2021/05/05 04:15:25;;;;;;;16.48;3.83;;;;;;;4.46;100.00;99893.34;3551339;40;20059;-60
2021/05/05 04:17:51;;;;;;;14.70;3.67;;;;;;;4.50;100.00;99897.47;3548477;40;20049;-60
2021/05/05 04:20:19;;;;;;;21.90;4.35;;;;;;;4.57;100.00;99891.53;3554121;40;20403;-63
2021/05/05 04:22:45;;;;;;;14.60;3.47;;;;;;;4.64;100.00;99897.22;3549291;40;20097;-60
2021/05/05 04:27:39;;;;;;;18.20;3.58;;;;;;;4.78;100.00;99901.44;3588675;23;20053;-61
2021/05/05 04:30:07;;;;;;;18.75;3.42;;;;;;;4.81;100.00;99901.19;3562173;40;20115;-64
2021/05/05 04:35:01;;;;;;;17.42;4.07;;;;;;;4.86;100.00;99907.03;3639440;22;20076;-61
2021/05/05 04:37:27;;;;;;;18.50;3.90;;;;;;;4.90;100.00;99904.94;3558714;40;21228;-62
2021/05/05 04:39:53;;;;;;;24.75;4.35;;;;;;;4.93;100.00;99911.88;3633511;22;20069;-61
2021/05/05 04:42:19;;;;;;;18.35;3.97;;;;;;;4.91;100.00;99915.50;3548454;40;20053;-63
2021/05/05 04:44:46;;;;;;;18.05;3.47;;;;;;;4.90;100.00;99918.28;3548422;40;20067;-62
2021/05/05 04:47:12;;;;;;;17.30;3.45;;;;;;;4.96;100.00;99924.94;3551167;40;20402;-60
2021/05/05 04:49:38;;;;;;;17.15;3.28;;;;;;;5.05;100.00;99924.19;3554561;40;20041;-61
2021/05/05 04:52:04;;;;;;;20.90;4.70;;;;;;;5.14;100.00;99936.81;3550583;40;20073;-63
2021/05/05 04:54:30;;;;;;;21.55;3.55;;;;;;;5.22;100.00;99926.34;3559035;40;20442;-60
2021/05/05 04:56:56;;;;;;;15.20;3.45;;;;;;;5.20;100.00;99922.13;3549562;40;20139;-63
2021/05/05 04:59:23;;;;;;;19.38;3.42;;;;;;;5.09;100.00;99931.84;3554184;40;20053;-63
2021/05/05 05:01:50;;;;;;;18.00;3.60;;;;;;;5.13;100.00;99927.09;3552578;40;20067;-61
2021/05/05 05:04:16;;;;;;;18.98;3.63;;;;;;;5.18;100.00;99940.06;3549471;40;20314;-61
2021/05/05 05:06:42;;;;;;;18.13;3.58;;;;;;;5.08;100.00;99934.66;3554314;40;20056;-59
2021/05/05 05:09:08;;;;;;;19.00;3.38;;;;;;;5.12;100.00;99940.56;3553808;40;20064;-60
2021/05/05 05:11:34;;;;;;;15.63;3.42;;;;;;;5.20;100.00;99943.47;3567919;40;20143;-61
2021/05/05 05:14:00;;;;;;;16.77;3.33;;;;;;;5.29;100.00;99942.72;3543786;40;20061;-61
2021/05/05 05:16:26;;;;;;;17.70;3.53;;;;;;;5.34;100.00;99939.69;3550880;40;20049;-62
2021/05/05 05:18:53;;;;;;;13.40;3.50;;;;;;;5.46;100.00;99949.34;3554409;40;20041;-61
2021/05/05 05:21:19;;;;;;;19.55;3.40;;;;;;;5.56;100.00;99944.94;3553773;40;20068;-61
2021/05/05 05:23:45;;;;;;;14.13;3.17;;;;;;;5.50;100.00;99956.13;3549547;40;20045;-62
2021/05/05 05:26:11;;;;;;;13.70;3.15;;;;;;;5.41;100.00;99955.06;3552823;40;20403;-62
2021/05/05 05:28:37;;;;;;;17.23;3.42;;;;;;;5.40;100.00;99955.19;3548026;40;20300;-62
2021/05/05 05:31:03;;;;;;;17.05;3.00;;;;;;;5.38;100.00;99954.47;3546998;40;21049;-63
2021/05/05 05:33:29;;;;;;;18.77;3.63;;;;;;;5.36;100.00;99948.38;3543682;40;20134;-62
2021/05/05 05:35:56;;;;;;;15.00;3.50;;;;;;;5.38;100.00;99957.97;3547600;40;20406;-61
2021/05/05 05:38:22;;;;;;;13.07;3.45;;;;;;;5.46;100.00;99957.34;3554984;40;20063;-61
2021/05/05 05:40:48;;;;;;;8.93;2.88;;;;;;;5.52;100.00;99959.53;3552297;40;20037;-62
2021/05/05 05:43:15;;;;;;;14.70;3.00;;;;;;;5.49;100.00;99954.44;3554848;40;20064;-62
2021/05/05 05:45:41;;;;;;;12.00;2.70;;;;;;;5.66;100.00;99966.38;3554570;40;20053;-61
2021/05/05 05:48:07;;;;;;;17.67;3.55;;;;;;;5.92;100.00;99966.91;3550147;40;20076;-60
2021/05/05 05:50:33;;;;;;;15.90;4.03;;;;;;;5.88;100.00;99976.13;3552779;40;20057;-61
2021/05/05 05:53:00;;;;;;;15.82;3.20;;;;;;;5.75;100.00;99981.66;3554436;40;21029;-60
2021/05/05 05:55:29;;;;;;;16.60;3.60;;;;;;;5.59;100.00;99982.09;3551576;40;20314;-62
2021/05/05 05:57:57;;;;;;;14.82;3.35;;;;;;;5.65;100.00;99980.69;3547639;40;20163;-61
2021/05/05 06:00:24;;;;;;;13.90;2.97;;;;;;;5.66;100.00;99977.06;3551429;40;20064;-60
2021/05/05 06:02:50;;;;;;;18.33;3.28;;;;;;;5.70;100.00;99983.03;3552333;40;20042;-60
2021/05/05 06:05:17;;;;;;;17.33;3.65;;;;;;;5.76;100.00;99988.69;3550350;40;20056;-60
2021/05/05 06:07:43;;;;;;;12.15;3.38;;;;;;;5.79;100.00;99982.25;3551705;40;20119;-61
2021/05/05 06:10:11;;;;;;;18.45;3.53;;;;;;;5.72;100.00;99983.72;3555405;40;20061;-62
2021/05/05 06:12:37;;;;;;;18.70;3.58;;;;;;;5.69;100.00;99992.00;3550518;40;20068;-63
2021/05/05 06:15:04;;;;;;;17.38;3.67;;;;;;;5.77;100.00;99995.72;3554955;40;20059;-61
2021/05/05 06:17:31;;;;;;;15.77;3.80;;;;;;;5.66;100.00;100002.94;3558069;40;20043;-62
2021/05/05 06:19:57;;;;;;;12.63;3.25;;;;;;;5.59;100.00;100008.78;3567033;40;20064;-65
2021/05/05 06:22:23;;;;;;;17.00;4.20;;;;;;;5.55;100.00;100015.34;3567594;40;20057;-61
2021/05/05 06:24:49;;;;;;;12.38;3.13;;;;;;;5.58;100.00;100007.06;3570927;40;20049;-64
2021/05/05 06:27:15;;;;;;;11.05;2.13;;;;;;;5.52;100.00;100010.25;3569718;40;20434;-61
2021/05/05 06:29:42;;;;;;;9.55;1.65;;;;;;;5.63;100.00;100014.69;3569329;40;20309;-64
2021/05/05 06:32:08;;;;;;;7.28;1.80;;;;;;;5.72;100.00;100021.13;3570195;40;20034;-63
2021/05/05 06:34:34;;;;;;;6.95;1.40;;;;;;;5.64;100.00;100020.88;3571058;40;20054;-60
2021/05/05 06:37:02;;;;;;;7.60;1.70;;;;;;;5.57;100.00;100029.38;3570866;40;20053;-61
2021/05/05 06:39:29;;;;;;;6.37;1.70;;;;;;;5.50;100.00;100016.66;3569769;40;20045;-64
2021/05/05 06:41:55;;;;;;;7.85;1.60;;;;;;;5.50;100.00;100014.84;3570592;40;20050;-64
2021/05/05 06:44:21;;;;;;;6.25;1.70;;;;;;;5.35;100.00;100027.59;3571635;40;20055;-61
2021/05/05 06:46:50;;;;;;;8.05;1.95;;;;;;;5.35;100.00;100034.78;3571150;40;20056;-62
2021/05/05 06:49:17;;;;;;;6.75;1.73;;;;;;;5.26;100.00;100047.88;3571105;40;20127;-64
2021/05/05 06:51:43;;;;;;;8.50;2.05;;;;;;;5.35;100.00;100037.44;3571978;40;20435;-60
2021/05/05 06:54:09;;;;;;;7.82;2.05;;;;;;;5.55;100.00;100042.03;3570751;40;20060;-61
2021/05/05 06:56:35;;;;;;;6.43;1.98;;;;;;;5.92;100.00;100046.19;3571756;40;20033;-61
2021/05/05 06:59:01;;;;;;;8.02;1.60;;;;;;;5.99;100.00;100051.88;3571434;40;20052;-61
2021/05/05 07:01:29;;;;;;;10.02;1.90;;;;;;;6.20;100.00;100039.44;3570050;40;20048;-60
2021/05/05 07:03:55;;;;;;;7.65;1.88;;;;;;;6.27;100.00;100051.31;3571619;40;20060;-63
2021/05/05 07:06:20;;;;;;;6.85;1.67;;;;;;;6.48;100.00;100047.81;3570752;40;20296;-61
2021/05/05 07:08:46;;;;;;;8.85;1.65;;;;;;;6.54;100.00;100057.97;3571583;40;20525;-60
2021/05/05 07:11:13;;;;;;;7.13;1.70;;;;;;;6.58;100.00;100053.19;3571602;40;20288;-61
2021/05/05 07:13:39;;;;;;;8.48;2.22;;;;;;;6.59;100.00;100061.09;3570231;40;20067;-62
2021/05/05 07:16:05;;;;;;;5.20;1.73;;;;;;;6.60;100.00;100045.91;3570203;40;21083;-62
2021/05/05 07:18:32;;;;;;;8.20;2.13;;;;;;;6.82;100.00;100051.13;3566205;40;20046;-61
2021/05/05 07:20:58;;;;;;;8.90;1.75;;;;;;;7.01;100.00;100044.19;3570029;40;20142;-63
2021/05/05 07:23:24;;;;;;;9.10;1.90;;;;;;;7.18;100.00;100053.41;3570147;40;20048;-62
2021/05/05 07:25:50;;;;;;;8.10;1.70;;;;;;;7.44;100.00;100050.28;3570031;40;20668;-61
2021/05/05 07:28:16;;;;;;;10.20;2.42;;;;;;;7.56;100.00;100048.34;3570417;40;20059;-61
2021/05/05 07:30:42;;;;;;;12.00;2.60;;;;;;;7.88;100.00;100057.00;3571542;40;20064;-61
2021/05/05 07:33:35;;;;;;;9.45;2.15;;;;;;;7.47;100.00;100066.06;3608601;23;20380;-60
2021/05/05 07:36:02;;;;;;;15.90;2.25;;;;;;;7.50;100.00;100065.78;3613437;23;20047;-62
2021/05/05 07:38:47;;;;;;;9.20;2.22;;;;;;;7.75;100.00;100063.63;3550785;40;20035;-61
2021/05/05 07:46:43;;;;;;;14.20;2.78;;;;;;;6.84;100.00;100075.06;3548086;40;20132;-61
2021/05/05 07:49:11;;;;;;;13.80;2.70;;;;;;;6.61;100.00;100080.53;3549617;40;20038;-64
2021/05/05 07:51:38;;;;;;;8.40;2.30;;;;;;;6.64;100.00;100092.78;3550284;40;20046;-63
2021/05/05 07:54:04;;;;;;;9.30;2.17;;;;;;;6.60;100.00;100094.88;3549986;40;20417;-61
2021/05/05 07:56:30;;;;;;;8.32;2.03;;;;;;;6.20;100.00;100086.66;3548543;40;20045;-59
2021/05/05 07:59:01;;;;;;;14.38;3.40;;;;;;;6.29;100.00;100092.09;3549094;40;20047;-60
2021/05/05 08:01:27;;;;;;;13.10;2.88;;;;;;;6.82;100.00;100090.41;3544294;40;20042;-60
2021/05/05 08:03:53;;;;;;;6.93;2.42;;;;;;;7.17;100.00;100086.53;3546948;40;20294;-61
2021/05/05 08:06:19;;;;;;;8.90;2.50;;;;;;;7.44;100.00;100096.63;3544436;40;20061;-64
2021/05/05 08:08:46;;;;;;;13.63;2.10;;;;;;;7.72;100.00;100092.34;3550457;40;20394;-60
2021/05/05 08:11:12;;;;;;;12.40;2.10;;;;;;;8.23;100.00;100095.00;3550815;40;20405;-61
2021/05/05 08:13:38;;;;;;;13.68;2.90;;;;;;;8.13;100.00;100104.88;3550776;40;20053;-61
2021/05/05 08:16:06;;;;;;;8.93;1.98;;;;;;;7.78;100.00;100114.25;3549803;40;20052;-59
2021/05/05 08:18:32;;;;;;;6.60;1.50;;;;;;;7.46;100.00;100120.59;3551300;40;20042;-62
2021/05/05 08:21:00;;;;;;;6.53;1.35;;;;;;;7.24;100.00;100119.78;3551356;40;20066;-61
2021/05/05 08:23:27;;;;;;;4.28;1.50;;;;;;;7.45;100.00;100111.72;3551709;40;20076;-61
2021/05/05 08:25:54;;;;;;;7.45;2.35;;;;;;;7.81;100.00;100127.34;3550704;40;20058;-60
2021/05/05 08:28:20;;;;;;;7.55;2.13;;;;;;;7.87;100.00;100116.91;3551482;40;20053;-60
2021/05/05 08:30:46;;;;;;;9.30;2.25;;;;;;;8.18;100.00;100114.16;3551553;40;20042;-64
2021/05/05 08:33:12;;;;;;;7.70;2.08;;;;;;;8.40;100.00;100123.78;3551544;40;20057;-61
2021/05/05 08:35:40;;;;;;;9.70;2.28;;;;;;;8.88;100.00;100132.84;3552924;40;20060;-61
2021/05/05 08:38:07;;;;;;;9.50;2.30;;;;;;;8.84;100.00;100125.22;3561290;40;20069;-63
2021/05/05 08:40:33;;;;;;;14.93;2.88;;;;;;;8.91;100.00;100131.72;3561272;40;20042;-62
2021/05/05 08:43:00;;;;;;;12.25;2.63;;;;;;;8.28;100.00;100151.72;3558542;40;20045;-63
2021/05/05 08:45:29;;;;;;;10.32;2.13;;;;;;;7.47;100.00;100151.75;3560831;40;20105;-62
2021/05/05 08:47:58;;;;;;;6.40;1.70;;;;;;;6.74;100.00;100160.56;3560648;40;20300;-63
2021/05/05 08:50:28;;;;;;;6.72;1.83;;;;;;;6.29;100.00;100153.56;3560779;40;20052;-63
2021/05/05 08:52:55;;;;;;;6.63;1.70;;;;;;;6.14;100.00;100169.03;3559884;40;20374;-65
2021/05/05 08:55:23;;;;;;;8.48;1.70;;;;;;;6.10;100.00;100166.75;3559973;40;20170;-64
2021/05/05 08:57:50;;;;;;;4.97;1.83;;;;;;;6.02;100.00;100154.00;3562454;40;20780;-62
2021/05/05 09:00:19;;;;;;;9.93;2.40;;;;;;;6.43;100.00;100167.63;3560129;40;20037;-64
2021/05/05 09:02:46;;;;;;;12.15;2.80;;;;;;;7.02;100.00;100155.56;3561746;40;20101;-62
2021/05/05 09:05:13;;;;;;;14.32;3.25;;;;;;;7.68;100.00;100154.38;3561033;40;20307;-61
2021/05/05 09:07:41;;;;;;;17.80;4.18;;;;;;;7.55;100.00;100159.94;3562374;40;20759;-63
2021/05/05 09:10:09;;;;;;;13.35;3.67;;;;;;;7.18;100.00;100157.78;3560332;40;20057;-64
2021/05/05 09:12:37;;;;;;;16.13;3.65;;;;;;;6.89;100.00;100170.94;3561393;40;20045;-62
2021/05/05 09:15:06;;;;;;;17.42;3.88;;;;;;;6.75;100.00;100177.47;3561971;40;20353;-61
2021/05/05 09:17:34;;;;;;;13.02;3.30;;;;;;;6.68;100.00;100182.47;3561548;40;20064;-61
2021/05/05 09:20:22;;;;;;;12.90;3.50;;;;;;;7.25;100.00;100180.38;3561528;40;20049;-63
2021/05/05 09:22:51;;;;;;;17.15;3.25;;;;;;;7.86;100.00;100178.69;3561775;40;20067;-62
2021/05/05 09:25:20;;;;;;;17.83;4.13;;;;;;;7.99;100.00;100173.09;3561858;40;20042;-61
2021/05/05 09:28:07;;;;;;;15.60;2.72;;;;;;;8.02;100.00;100179.03;3561125;40;20080;-64
2021/05/05 09:30:33;;;;;;;14.38;3.08;;;;;;;8.58;100.00;100179.44;3562187;40;20072;-61
2021/05/05 09:33:02;;;;;;;15.93;3.25;;;;;;;8.65;100.00;100177.91;3563418;40;20038;-61
2021/05/05 09:35:32;;;;;;;12.15;3.13;;;;;;;8.44;100.00;100188.75;3561757;40;20401;-61
2021/05/05 09:38:00;;;;;;;15.32;3.28;;;;;;;8.12;100.00;100216.56;3561275;40;20312;-62
2021/05/05 09:40:27;;;;;;;8.98;2.35;;;;;;;7.23;100.00;100241.22;3560875;40;20052;-60
2021/05/05 09:42:54;;;;;;;6.63;1.40;;;;;;;6.45;100.00;100245.88;3560759;40;20046;-65
2021/05/05 09:45:21;;;;;;;7.07;2.03;;;;;;;6.19;100.00;100250.66;3560960;40;20082;-61
2021/05/05 09:47:53;;;;;;;9.07;1.73;;;;;;;6.26;100.00;100246.53;3561970;40;20119;-63
2021/05/05 09:50:31;;;;;;;12.23;2.53;;;;;;;6.38;100.00;100250.88;3560775;40;20151;-61
2021/05/05 09:53:16;;;;;;;7.55;2.28;;;;;;;6.45;100.00;100269.94;3562039;40;20058;-64
2021/05/05 09:55:42;;;;;;;8.52;2.00;;;;;;;6.30;100.00;100275.53;3562801;40;20041;-63
2021/05/05 09:58:25;;;;;;;10.48;2.15;;;;;;;6.19;100.00;100272.88;3562514;40;20102;-64
2021/05/05 10:01:13;;;;;;;5.22;1.95;;;;;;;6.06;100.00;100261.47;3562089;40;20038;-62
2021/05/05 10:03:41;;;;;;;13.68;2.72;;;;;;;6.00;100.00;100272.63;3562812;40;20041;-65
2021/05/05 10:06:21;;;;;;;13.55;2.67;;;;;;;6.06;100.00;100272.16;3562466;40;20081;-61
2021/05/05 10:08:50;;;;;;;17.05;2.97;;;;;;;6.60;100.00;100274.03;3562585;40;20274;-60
2021/05/05 10:11:20;;;;;;;15.32;2.97;;;;;;;7.27;100.00;100274.75;3562441;40;20041;-61
2021/05/05 10:13:46;;;;;;;;;;;;;;;7.82;100.00;100284.44;3563179;40;20081;-60
2021/05/05 10:16:13;;;;;;;12.70;3.20;;;;;;;8.29;100.00;100268.72;3562241;40;19943;-62
2021/05/05 10:18:39;;;;;;;19.80;3.22;;;;;;;8.60;100.00;100274.06;3562689;40;20320;-61
2021/05/05 10:21:05;;;;;;;15.73;3.17;;;;;;;9.02;100.00;100273.81;3561424;40;20038;-62
2021/05/05 10:23:32;;;;;;;19.58;3.78;;;;;;;8.97;100.00;100267.19;3562440;40;20063;-64
2021/05/05 10:25:58;;;;;;;11.55;2.75;;;;;;;8.62;100.00;100276.59;3562224;40;20337;-62
2021/05/05 10:28:25;;;;;;;15.48;3.00;;;;;;;8.47;100.00;100284.19;3561562;40;20122;-62
2021/05/05 10:30:51;;;;;;;12.18;3.15;;;;;;;8.13;100.00;100316.63;3562020;40;20057;-61
2021/05/05 10:33:20;;;;;;;9.95;2.75;;;;;;;7.99;100.00;100339.25;3561801;40;20101;-62
2021/05/05 10:35:46;;;;;;;7.90;2.50;;;;;;;7.93;100.00;100355.84;3562837;40;20050;-60
2021/05/05 10:38:34;;;;;;;9.82;2.17;;;;;;;7.39;100.00;100355.03;3562103;40;20048;-64
2021/05/05 10:41:08;;;;;;;7.68;2.10;;;;;;;7.33;100.00;100353.69;3562608;40;20351;-62
2021/05/05 10:43:47;;;;;;;6.93;2.10;;;;;;;7.19;100.00;100354.88;3561891;40;20048;-61
2021/05/05 10:46:33;;;;;;;8.05;2.50;;;;;;;7.50;100.00;100366.53;3561214;40;20053;-63
2021/05/05 10:49:04;;;;;;;9.73;2.70;;;;;;;7.27;100.00;100359.56;3563018;40;20393;-61
2021/05/05 10:51:59;;;;;;;16.33;2.92;;;;;;;6.94;100.00;100364.91;3562024;40;20053;-60
2021/05/05 10:58:03;;;;;;;12.25;3.85;;;;;;;8.57;100.00;100373.59;3598779;23;20073;-64
2021/05/05 11:00:43;;;;;;;21.77;4.17;;;;;;;8.98;100.00;100374.41;3564432;40;20053;-62
2021/05/05 11:03:09;;;;;;;18.27;3.55;;;;;;;8.97;100.00;100367.34;3564882;40;20406;-60
2021/05/05 11:05:37;;;;;;;21.58;3.47;;;;;;;9.02;100.00;100362.38;3565164;40;20061;-63
2021/05/05 11:08:05;;;;;;;12.75;3.17;;;;;;;9.17;100.00;100375.44;3564779;40;20097;-62
2021/05/05 11:10:48;;;;;;;10.57;3.15;;;;;;;9.28;100.00;100383.38;3561709;40;20056;-63
2021/05/05 11:13:43;;;;;;;19.88;3.42;;;;;;;9.58;100.00;100395.81;3562263;40;20049;-63
2021/05/05 11:16:11;;;;;;;15.05;3.97;;;;;;;9.74;100.00;100403.31;3562720;40;20305;-62
2021/05/05 11:18:45;;;;;;;15.77;3.10;;;;;;;9.85;100.00;100394.28;3563324;40;20135;-61
2021/05/05 11:21:41;;;;;;;11.23;2.55;;;;;;;9.95;100.00;100392.41;3561997;40;20058;-61
2021/05/05 11:24:29;;;;;;;17.45;3.00;;;;;;;10.23;100.00;100403.28;3563195;40;20057;-62
2021/05/05 11:26:56;;;;;;;14.80;3.20;;;;;;;10.52;100.00;100403.19;3563815;40;20065;-62
2021/05/05 11:29:38;;;;;;;12.55;3.13;;;;;;;10.70;100.00;100402.41;3563444;40;20569;-61
2021/05/05 11:32:16;;;;;;;25.55;3.78;;;;;;;10.77;100.00;100406.22;3563667;40;20076;-62
2021/05/05 11:34:44;;;;;;;18.05;3.50;;;;;;;10.94;100.00;100428.81;3563293;40;20053;-65
2021/05/05 11:37:13;;;;;;;15.13;3.72;;;;;;;11.10;100.00;100430.88;3562676;40;20142;-61
2021/05/05 11:39:40;;;;;;;20.88;3.88;;;;;;;11.68;100.00;100426.09;3563977;40;20160;-62
2021/05/05 11:42:10;;;;;;;14.27;2.70;;;;;;;11.15;100.00;100436.63;3563850;40;20392;-63
2021/05/05 11:44:42;;;;;;;22.23;3.47;;;;;;;11.14;100.00;100437.63;3564725;40;20045;-62